createdAt,value
2024-01-27T00:00:57.778Z,99351.00
2024-01-27T00:03:26.869Z,99353.69
2024-01-27T00:05:54.607Z,99357.31
2024-01-27T00:08:22.846Z,99357.41
2024-01-27T00:10:50.503Z,99359.34
2024-01-27T00:13:18.035Z,99358.81
2024-01-27T00:15:45.576Z,99355.28
2024-01-27T00:18:13.313Z,99352.81
2024-01-27T00:20:42.447Z,99355.25
2024-01-27T00:23:10.068Z,99356.13
2024-01-27T00:25:37.759Z,99367.97
2024-01-27T00:28:05.802Z,99376.31
2024-01-27T00:30:33.552Z,99379.53
2024-01-27T00:33:01.236Z,99368.38
2024-01-27T00:35:28.905Z,99376.50
2024-01-27T00:37:58.109Z,99367.75
2024-01-27T00:40:25.503Z,99377.78
2024-01-27T00:42:53.341Z,99378.84
2024-01-27T00:45:21.349Z,99382.66
2024-01-27T00:47:49.303Z,99383.94
2024-01-27T00:50:17.001Z,99383.38
2024-01-27T00:52:44.559Z,99389.88
2024-01-27T00:55:13.648Z,99387.44
2024-01-27T00:57:41.348Z,99392.78
2024-01-27T01:00:10.775Z,99392.97
2024-01-27T01:02:38.874Z,99396.50
2024-01-27T01:05:06.832Z,99391.16
2024-01-27T01:07:34.467Z,99394.03
2024-01-27T01:10:02.624Z,99395.09
2024-01-27T01:12:31.773Z,99392.41
2024-01-27T01:14:59.592Z,99390.16
2024-01-27T01:17:27.241Z,99393.97
2024-01-27T01:19:55.234Z,99391.72
2024-01-27T01:22:22.839Z,99402.59
2024-01-27T01:24:50.506Z,99399.94
2024-01-27T01:27:20.216Z,99405.34
2024-01-27T01:29:49.519Z,99408.03
2024-01-27T01:32:17.171Z,99413.84
2024-01-27T01:34:47.044Z,99410.53
2024-01-27T01:37:14.802Z,99419.69
2024-01-27T01:39:42.542Z,99420.09
2024-01-27T01:42:10.167Z,99413.72
2024-01-27T01:44:37.855Z,99416.78
2024-01-27T01:47:08.886Z,99414.97
2024-01-27T01:49:37.309Z,99417.72
2024-01-27T01:52:06.045Z,99420.47
2024-01-27T01:54:33.969Z,99414.50
2024-01-27T01:57:02.012Z,99411.91
2024-01-27T01:59:29.784Z,99413.72
2024-01-27T02:01:57.532Z,99412.84
2024-01-27T02:04:26.568Z,99410.41
2024-01-27T02:06:54.232Z,99409.72
2024-01-27T02:09:21.880Z,99418.50
2024-01-27T02:11:49.664Z,99425.44
2024-01-27T02:14:18.819Z,99423.81
2024-01-27T02:16:46.392Z,99437.81
2024-01-27T02:19:14.163Z,99441.44
2024-01-27T02:21:43.316Z,99452.22
2024-01-27T02:24:12.369Z,99455.44
2024-01-27T02:26:39.965Z,99462.59
2024-01-27T02:29:07.532Z,99468.69
2024-01-27T02:31:35.325Z,99470.56
2024-01-27T02:34:03.050Z,99469.53
2024-01-27T02:36:30.828Z,99479.44
2024-01-27T02:38:58.470Z,99476.22
2024-01-27T02:41:28.053Z,99485.06
2024-01-27T02:43:55.759Z,99478.88
2024-01-27T02:46:23.412Z,99485.72
2024-01-27T02:48:51.237Z,99493.44
2024-01-27T02:51:20.722Z,99486.00
2024-01-27T02:53:48.512Z,99497.81
2024-01-27T02:56:17.800Z,99501.91
2024-01-27T02:58:46.747Z,99494.00
2024-01-27T03:01:14.450Z,99501.81
2024-01-27T03:03:42.192Z,99504.56
2024-01-27T03:06:09.927Z,99496.00
2024-01-27T03:08:37.628Z,99489.81
2024-01-27T03:11:05.542Z,99500.19
2024-01-27T03:13:34.251Z,99506.28
2024-01-27T03:16:03.406Z,99512.97
2024-01-27T03:18:31.415Z,99509.31
2024-01-27T03:20:59.351Z,99499.44
2024-01-27T03:23:26.953Z,99507.34
2024-01-27T03:25:54.928Z,99510.47
2024-01-27T03:28:22.911Z,99509.31
2024-01-27T03:30:50.566Z,99503.69
2024-01-27T03:33:19.858Z,99506.44
2024-01-27T03:35:47.645Z,99514.94
2024-01-27T03:38:15.319Z,99509.38
2024-01-27T03:40:42.845Z,99501.19
2024-01-27T03:43:10.411Z,99513.59
2024-01-27T03:45:38.111Z,99504.50
2024-01-27T03:48:06.844Z,99507.88
2024-01-27T03:50:35.868Z,99512.03
2024-01-27T03:53:03.519Z,99509.47
2024-01-27T03:55:32.503Z,99515.34
2024-01-27T03:58:00.171Z,99517.06
2024-01-27T04:00:29.000Z,99517.72
2024-01-27T04:02:56.666Z,99527.44
2024-01-27T04:05:24.292Z,99518.78
2024-01-27T04:07:53.290Z,99526.81
2024-01-27T04:10:21.456Z,99525.84
2024-01-27T04:12:49.064Z,99531.75
2024-01-27T04:15:16.755Z,99521.06
2024-01-27T04:17:44.390Z,99520.31
2024-01-27T04:20:12.714Z,99515.06
2024-01-27T04:22:40.664Z,99521.16
2024-01-27T04:25:09.900Z,99525.84
2024-01-27T04:27:45.750Z,99525.00
2024-01-27T04:30:14.338Z,99520.41
2024-01-27T04:32:42.308Z,99523.94
2024-01-27T04:35:10.820Z,99524.69
2024-01-27T04:37:38.745Z,99526.59
2024-01-27T04:40:07.397Z,99524.03
2024-01-27T04:42:39.006Z,99526.03
2024-01-27T04:45:07.272Z,99535.00
2024-01-27T04:47:35.197Z,99533.41
2024-01-27T04:50:02.936Z,99539.91
2024-01-27T04:52:31.925Z,99538.34
2024-01-27T04:54:59.711Z,99542.38
2024-01-27T04:57:27.300Z,99542.56
2024-01-27T04:59:56.384Z,99548.09
2024-01-27T05:02:23.966Z,99544.66
2024-01-27T05:04:51.505Z,99535.16
2024-01-27T05:07:19.285Z,99536.38
2024-01-27T05:09:47.009Z,99531.44
2024-01-27T05:12:14.643Z,99540.19
2024-01-27T05:14:44.751Z,99541.44
2024-01-27T05:17:13.756Z,99536.47
2024-01-27T05:19:41.591Z,99542.00
2024-01-27T05:22:09.161Z,99546.56
2024-01-27T05:24:36.817Z,99542.47
2024-01-27T05:27:05.167Z,99539.41
2024-01-27T05:29:32.743Z,99543.41
2024-01-27T05:32:00.319Z,99541.38
2024-01-27T05:34:29.494Z,99561.69
2024-01-27T05:36:57.271Z,99559.53
2024-01-27T05:39:24.871Z,99559.47
2024-01-27T05:41:52.500Z,99569.25
2024-01-27T05:44:20.070Z,99570.78
2024-01-27T05:46:48.146Z,99575.38
2024-01-27T05:49:15.895Z,99571.91
2024-01-27T05:51:45.037Z,99570.19
2024-01-27T05:54:15.944Z,99576.59
2024-01-27T05:56:43.754Z,99580.47
2024-01-27T05:59:11.341Z,99580.63
2024-01-27T06:01:41.199Z,99586.81
2024-01-27T06:04:09.083Z,99587.78
2024-01-27T06:06:39.577Z,99586.81
2024-01-27T06:09:12.383Z,99580.75
2024-01-27T06:11:40.208Z,99585.22
2024-01-27T06:14:07.875Z,99581.50
2024-01-27T06:16:36.664Z,99581.41
2024-01-27T06:19:04.744Z,99590.25
2024-01-27T06:21:32.956Z,99583.41
2024-01-27T06:24:01.022Z,99547.53
2024-01-27T06:26:30.040Z,99565.47
2024-01-27T06:28:58.089Z,99584.03
2024-01-27T06:31:25.657Z,99591.91
2024-01-27T06:33:53.621Z,99578.59
2024-01-27T06:36:24.181Z,99580.78
2024-01-27T06:38:52.443Z,99587.06
2024-01-27T06:41:20.028Z,99596.25
2024-01-27T06:43:48.965Z,99593.59
2024-01-27T06:46:16.648Z,99597.28
2024-01-27T06:48:44.748Z,99589.41
2024-01-27T06:51:13.052Z,99587.94
2024-01-27T06:53:40.776Z,99587.09
2024-01-27T06:56:08.999Z,99591.81
2024-01-27T06:58:37.638Z,99591.91
2024-01-27T07:01:08.500Z,99603.56
2024-01-27T07:03:36.261Z,99600.16
2024-01-27T07:06:04.637Z,99597.22
2024-01-27T07:08:36.905Z,99590.97
2024-01-27T07:11:06.203Z,99597.16
2024-01-27T07:13:33.842Z,99593.44
2024-01-27T07:16:01.553Z,99583.06
2024-01-27T07:18:31.121Z,99572.34
2024-01-27T07:21:00.928Z,99601.75
2024-01-27T07:23:28.723Z,99608.13
2024-01-27T07:25:56.313Z,99607.09
2024-01-27T07:28:23.882Z,99615.59
2024-01-27T07:30:51.445Z,99611.22
2024-01-27T07:33:19.177Z,99605.97
2024-01-27T07:35:48.308Z,99612.75
2024-01-27T07:38:15.841Z,99602.81
2024-01-27T07:40:43.591Z,99605.28
2024-01-27T07:43:11.106Z,99597.81
2024-01-27T07:45:38.859Z,99606.59
2024-01-27T07:48:07.367Z,99604.88
2024-01-27T07:50:35.088Z,99599.69
2024-01-27T07:53:04.360Z,99610.44
2024-01-27T07:55:32.023Z,99611.13
2024-01-27T07:57:59.712Z,99613.72
2024-01-27T08:00:28.041Z,99613.53
2024-01-27T08:02:55.623Z,99613.25
2024-01-27T08:05:23.236Z,99613.09
2024-01-27T08:07:51.069Z,99621.75
2024-01-27T08:10:20.085Z,99628.09
2024-01-27T08:12:47.723Z,99624.38
2024-01-27T08:15:15.864Z,99618.63
2024-01-27T08:17:43.724Z,99609.22
2024-01-27T08:20:12.034Z,99606.22
2024-01-27T08:22:39.608Z,99620.69
2024-01-27T08:25:08.085Z,99625.03
2024-01-27T08:27:37.169Z,99619.25
2024-01-27T08:30:06.879Z,99619.47
2024-01-27T08:32:35.841Z,99619.94
2024-01-27T08:35:03.978Z,99624.59
2024-01-27T08:37:33.706Z,99624.22
2024-01-27T08:40:01.428Z,99621.00
2024-01-27T08:42:29.107Z,99611.94
2024-01-27T08:44:58.187Z,99617.56
2024-01-27T08:47:25.767Z,99613.94
2024-01-27T08:49:53.415Z,99604.59
2024-01-27T08:52:21.121Z,99597.81
2024-01-27T08:54:48.710Z,99613.03
2024-01-27T08:57:16.415Z,99604.13
2024-01-27T08:59:44.193Z,99607.63
2024-01-27T09:02:13.592Z,99600.63
2024-01-27T09:04:41.785Z,99597.44
2024-01-27T09:07:09.505Z,99595.09
2024-01-27T09:09:39.414Z,99592.66
2024-01-27T09:12:07.933Z,99575.78
2024-01-27T09:14:35.701Z,99591.97
2024-01-27T09:17:03.629Z,99580.63
2024-01-27T09:19:32.911Z,99584.19
2024-01-27T09:22:00.606Z,99571.78
2024-01-27T09:24:28.687Z,99571.66
2024-01-27T09:26:56.349Z,99574.09
2024-01-27T09:29:24.100Z,99566.69
2024-01-27T09:31:51.958Z,99569.88
2024-01-27T09:34:19.764Z,99569.84
2024-01-27T09:36:48.909Z,99576.75
2024-01-27T09:39:16.580Z,99578.00
2024-01-27T09:41:44.905Z,99571.38
2024-01-27T09:44:14.772Z,99584.75
2024-01-27T09:46:42.839Z,99583.94
2024-01-27T09:49:14.275Z,99581.31
2024-01-27T09:51:42.849Z,99590.88
2024-01-27T09:54:12.157Z,99590.53
2024-01-27T09:56:40.068Z,99596.34
2024-01-27T09:59:10.294Z,99598.19
2024-01-27T10:01:39.377Z,99605.66
2024-01-27T10:04:09.339Z,99607.00
2024-01-27T10:06:37.084Z,99607.00
2024-01-27T10:09:05.054Z,99625.97
2024-01-27T10:11:37.420Z,99622.91
2024-01-27T10:14:05.005Z,99616.50
2024-01-27T10:16:41.457Z,99630.41
2024-01-27T10:19:14.889Z,99638.94
2024-01-27T10:21:42.634Z,99635.41
2024-01-27T10:24:10.317Z,99622.13
2024-01-27T10:26:39.493Z,99628.19
2024-01-27T10:29:07.524Z,99625.34
2024-01-27T10:31:37.549Z,99625.94
2024-01-27T10:34:06.313Z,99618.50
2024-01-27T10:36:42.047Z,99618.38
2024-01-27T10:39:21.632Z,99612.50
2024-01-27T10:41:51.879Z,99591.34
2024-01-27T10:44:20.840Z,99606.22
2024-01-27T10:46:49.180Z,99606.03
2024-01-27T10:49:19.114Z,99609.16
2024-01-27T10:51:52.733Z,99599.88
2024-01-27T10:54:26.587Z,99605.75
2024-01-27T10:56:57.516Z,99599.94
2024-01-27T10:59:28.201Z,99598.69
2024-01-27T11:01:57.181Z,99585.63
2024-01-27T11:04:27.097Z,99591.91
2024-01-27T11:06:55.084Z,99586.91
2024-01-27T11:09:23.162Z,99583.38
2024-01-27T11:11:51.458Z,99596.44
2024-01-27T11:14:20.616Z,99581.22
2024-01-27T11:16:49.049Z,99584.63
2024-01-27T11:19:18.783Z,99573.25
2024-01-27T11:21:46.582Z,99574.38
2024-01-27T11:24:16.172Z,99569.94
2024-01-27T11:26:43.990Z,99568.59
2024-01-27T11:29:20.617Z,99552.19
2024-01-27T11:31:50.506Z,99545.81
2024-01-27T11:34:21.814Z,99547.06
2024-01-27T11:36:49.904Z,99545.16
2024-01-27T11:39:27.756Z,99544.38
2024-01-27T11:42:06.345Z,99528.50
2024-01-27T11:44:35.670Z,99529.38
2024-01-27T11:47:05.644Z,99515.16
2024-01-27T11:49:34.793Z,99519.25
2024-01-27T11:52:03.153Z,99514.22
2024-01-27T11:54:30.843Z,99517.69
2024-01-27T11:56:58.563Z,99511.28
2024-01-27T11:59:26.247Z,99513.69
2024-01-27T12:01:53.920Z,99518.50
2024-01-27T12:04:23.616Z,99516.22
2024-01-27T12:06:51.605Z,99509.09
2024-01-27T12:09:19.529Z,99503.00
2024-01-27T12:11:47.395Z,99485.03
2024-01-27T12:14:14.967Z,99481.97
2024-01-27T12:16:42.703Z,99476.31
2024-01-27T12:19:12.178Z,99478.66
2024-01-27T12:21:48.896Z,99471.31
2024-01-27T12:24:21.955Z,99466.13
2024-01-27T12:26:50.281Z,99463.50
2024-01-27T12:29:20.759Z,99453.31
2024-01-27T12:31:48.453Z,99458.19
2024-01-27T12:34:18.043Z,99457.41
2024-01-27T12:36:48.601Z,99465.94
2024-01-27T12:39:16.456Z,99465.03
2024-01-27T12:41:44.219Z,99461.34
2024-01-27T12:44:12.189Z,99459.31
2024-01-27T12:46:39.966Z,99458.53
2024-01-27T12:49:09.182Z,99454.50
2024-01-27T12:51:37.724Z,99451.63
2024-01-27T12:54:07.975Z,99444.84
2024-01-27T12:56:36.210Z,99447.41
2024-01-27T12:59:03.953Z,99453.03
2024-01-27T13:01:31.620Z,99437.72
2024-01-27T13:03:59.310Z,99439.53
2024-01-27T13:06:27.074Z,99430.59
2024-01-27T13:08:55.533Z,99431.97
2024-01-27T13:11:25.543Z,99437.06
2024-01-27T13:13:53.249Z,99436.16
2024-01-27T13:16:20.985Z,99428.53
2024-01-27T13:18:48.898Z,99431.78
2024-01-27T13:21:16.717Z,99430.44
2024-01-27T13:23:44.504Z,99436.03
2024-01-27T13:26:18.184Z,99432.47
2024-01-27T13:28:50.298Z,99426.84
2024-01-27T13:31:19.545Z,99431.19
2024-01-27T13:33:47.550Z,99421.72
2024-01-27T13:36:15.422Z,99423.28
2024-01-27T13:38:43.127Z,99427.38
2024-01-27T13:41:10.751Z,99435.03
2024-01-27T13:43:38.382Z,99431.44
2024-01-27T13:46:07.683Z,99421.56
2024-01-27T13:48:35.733Z,99423.63
2024-01-27T13:51:04.285Z,99431.63
2024-01-27T13:53:39.232Z,99433.13
2024-01-27T13:56:14.647Z,99445.22
2024-01-27T13:58:42.880Z,99451.00
2024-01-27T14:01:12.021Z,99445.22
2024-01-27T14:03:40.255Z,99438.25
2024-01-27T14:06:13.198Z,99441.47
2024-01-27T14:08:41.235Z,99442.69
2024-01-27T14:11:08.833Z,99427.88
2024-01-27T14:13:36.439Z,99427.88
2024-01-27T14:16:04.506Z,99430.78
2024-01-27T14:18:34.408Z,99426.84
2024-01-27T14:21:02.137Z,99418.03
2024-01-27T14:23:29.955Z,99419.06
2024-01-27T14:25:57.889Z,99413.94
2024-01-27T14:28:26.082Z,99408.66
2024-01-27T14:30:54.030Z,99406.63
2024-01-27T14:33:22.343Z,99399.31
2024-01-27T14:35:51.860Z,99404.41
2024-01-27T14:38:19.441Z,99400.47
2024-01-27T14:40:47.006Z,99391.66
2024-01-27T14:43:14.988Z,99399.63
2024-01-27T14:45:43.885Z,99403.81
2024-01-27T14:48:11.955Z,99396.97
2024-01-27T14:50:39.865Z,99401.19
2024-01-27T14:53:08.920Z,99415.25
2024-01-27T14:55:36.485Z,99411.78
2024-01-27T14:58:05.201Z,99414.06
2024-01-27T15:00:33.098Z,99406.38
2024-01-27T15:03:03.102Z,99407.06
2024-01-27T15:05:31.125Z,99406.53
2024-01-27T15:07:58.892Z,99407.31
2024-01-27T15:10:27.921Z,99412.28
2024-01-27T15:12:55.818Z,99380.91
2024-01-27T15:15:23.535Z,99408.72
2024-01-27T15:17:51.333Z,99420.28
2024-01-27T15:20:19.124Z,99420.19
2024-01-27T15:22:46.865Z,99418.94
2024-01-27T15:25:14.573Z,99415.47
2024-01-27T15:27:44.612Z,99401.88
2024-01-27T15:30:14.173Z,99397.28
2024-01-27T15:32:41.860Z,99402.75
2024-01-27T15:35:09.935Z,99409.75
2024-01-27T15:37:39.503Z,99409.09
2024-01-27T15:40:08.816Z,99396.97
2024-01-27T15:42:37.376Z,99400.00
2024-01-27T15:45:07.319Z,99409.13
2024-01-27T15:47:35.023Z,99410.06
2024-01-27T15:50:05.794Z,99399.59
2024-01-27T15:52:33.798Z,99402.03
2024-01-27T15:55:01.738Z,99414.25
2024-01-27T15:57:29.440Z,99408.16
2024-01-27T15:59:57.522Z,99412.19
2024-01-27T16:02:26.662Z,99406.47
2024-01-27T16:04:57.733Z,99399.91
2024-01-27T16:07:25.421Z,99406.00
2024-01-27T16:09:56.884Z,99410.66
2024-01-27T16:12:24.651Z,99409.81
2024-01-27T16:14:52.235Z,99417.91
2024-01-27T16:17:19.794Z,99423.81
2024-01-27T16:19:49.031Z,99424.03
2024-01-27T16:22:23.811Z,99421.13
2024-01-27T16:24:52.006Z,99426.22
2024-01-27T16:27:28.815Z,99427.72
2024-01-27T16:29:58.178Z,99438.81
2024-01-27T16:32:26.145Z,99432.97
2024-01-27T16:34:55.270Z,99432.56
2024-01-27T16:37:22.912Z,99431.78
2024-01-27T16:39:50.707Z,99433.81
2024-01-27T16:42:18.358Z,99437.44
2024-01-27T16:44:45.959Z,99437.66
2024-01-27T16:47:13.513Z,99438.97
2024-01-27T16:49:42.325Z,99440.19
2024-01-27T16:52:11.247Z,99441.09
2024-01-27T16:54:39.257Z,99439.56
2024-01-27T16:57:07.272Z,99427.34
2024-01-27T16:59:35.579Z,99439.94
2024-01-27T17:02:03.356Z,99438.66
2024-01-27T17:04:30.986Z,99450.38
2024-01-27T17:06:58.649Z,99445.47
2024-01-27T17:09:27.642Z,99444.63
2024-01-27T17:11:55.014Z,99440.38
2024-01-27T17:14:22.607Z,99451.22
2024-01-27T17:16:50.490Z,99454.03
2024-01-27T17:19:18.199Z,99448.66
2024-01-27T17:21:45.888Z,99448.75
2024-01-27T17:24:13.615Z,99453.41
2024-01-27T17:26:42.660Z,99457.16
2024-01-27T17:29:10.403Z,99467.66
2024-01-27T17:31:38.058Z,99463.97
2024-01-27T17:34:05.824Z,99469.47
2024-01-27T17:36:33.617Z,99471.38
2024-01-27T17:39:01.291Z,99474.78
2024-01-27T17:41:28.964Z,99481.25
2024-01-27T17:43:58.735Z,99483.28
2024-01-27T17:46:26.331Z,99475.38
2024-01-27T17:48:54.152Z,99474.84
2024-01-27T17:51:22.001Z,99480.56
2024-01-27T17:53:49.960Z,99476.38
2024-01-27T17:56:23.930Z,99484.03
2024-01-27T17:58:51.737Z,99480.09
2024-01-27T18:01:20.868Z,99486.28
2024-01-27T18:03:48.625Z,99487.06
2024-01-27T18:06:16.715Z,99492.34
2024-01-27T18:08:44.648Z,99487.78
2024-01-27T18:11:12.264Z,99491.09
2024-01-27T18:13:39.862Z,99500.09
2024-01-27T18:16:09.416Z,99500.94
2024-01-27T18:18:38.515Z,99498.41
2024-01-27T18:21:06.254Z,99506.22
2024-01-27T18:23:33.949Z,99496.69
2024-01-27T18:26:01.574Z,99508.59
2024-01-27T18:28:29.390Z,99510.63
2024-01-27T18:30:57.178Z,99514.47
2024-01-27T18:33:26.090Z,99516.41
2024-01-27T18:35:57.678Z,99511.63
2024-01-27T18:38:25.590Z,99512.66
2024-01-27T18:40:53.281Z,99516.53
2024-01-27T18:43:20.853Z,99515.25
2024-01-27T18:45:48.609Z,99497.50
2024-01-27T18:48:16.532Z,99520.50
2024-01-27T18:50:44.212Z,99523.31
2024-01-27T18:53:13.509Z,99517.28
2024-01-27T18:55:41.973Z,99521.69
2024-01-27T18:58:10.296Z,99521.47
2024-01-27T19:00:38.624Z,99516.22
2024-01-27T19:03:10.574Z,99525.00
2024-01-27T19:05:38.489Z,99516.00
2024-01-27T19:08:06.386Z,99519.53
2024-01-27T19:10:35.349Z,99506.16
2024-01-27T19:13:03.643Z,99514.19
2024-01-27T19:15:33.125Z,99503.69
2024-01-27T19:18:01.608Z,99509.78
2024-01-27T19:20:29.289Z,99508.84
2024-01-27T19:22:56.934Z,99508.31
2024-01-27T19:25:24.621Z,99507.66
2024-01-27T19:27:53.641Z,99510.31
2024-01-27T19:30:21.732Z,99503.38
2024-01-27T19:32:49.546Z,99512.78
2024-01-27T19:35:18.781Z,99511.75
2024-01-27T19:37:46.400Z,99506.16
2024-01-27T19:40:14.491Z,99499.53
2024-01-27T19:42:42.145Z,99505.84
2024-01-27T19:45:11.924Z,99486.53
2024-01-27T19:47:40.058Z,99495.41
2024-01-27T19:50:08.790Z,99490.31
2024-01-27T19:52:36.433Z,99492.44
2024-01-27T19:55:04.653Z,99487.63
2024-01-27T19:57:32.429Z,99484.75
2024-01-27T20:00:00.238Z,99481.59
2024-01-27T20:02:29.361Z,99472.69
2024-01-27T20:04:56.932Z,99473.44
2024-01-27T20:07:24.540Z,99468.19
2024-01-27T20:09:52.204Z,99465.72
2024-01-27T20:12:19.959Z,99473.09
2024-01-27T20:14:47.734Z,99479.47
2024-01-27T20:17:15.727Z,99478.50
2024-01-27T20:19:45.882Z,99485.31
2024-01-27T20:22:14.724Z,99483.09
2024-01-27T20:24:42.567Z,99477.19
2024-01-27T20:27:10.227Z,99481.03
2024-01-27T20:29:38.008Z,99479.84
2024-01-27T20:32:07.044Z,99486.66
2024-01-27T20:34:36.280Z,99483.66
2024-01-27T20:37:05.897Z,99476.72
2024-01-27T20:39:33.869Z,99482.53
2024-01-27T20:42:01.911Z,99482.91
2024-01-27T20:44:29.662Z,99481.19
2024-01-27T20:46:58.193Z,99473.38
2024-01-27T20:49:26.132Z,99475.81
2024-01-27T20:51:54.053Z,99480.44
2024-01-27T20:54:23.141Z,99478.84
2024-01-27T20:56:50.746Z,99470.81
2024-01-27T20:59:18.368Z,99473.69
2024-01-27T21:01:47.230Z,99474.78
2024-01-27T21:04:16.332Z,99465.38
2024-01-27T21:06:44.773Z,99471.31
2024-01-27T21:09:12.911Z,99470.78
2024-01-27T21:11:42.104Z,99462.94
2024-01-27T21:14:09.683Z,99461.09
2024-01-27T21:16:40.241Z,99448.41
2024-01-27T21:19:08.321Z,99445.19
2024-01-27T21:21:36.068Z,99448.13
2024-01-27T21:24:04.038Z,99443.50
2024-01-27T21:26:31.817Z,99436.91
2024-01-27T21:29:03.157Z,99435.91
2024-01-27T21:31:30.818Z,99425.88
2024-01-27T21:33:58.579Z,99431.41
2024-01-27T21:36:26.278Z,99426.06
2024-01-27T21:38:54.673Z,99431.00
2024-01-27T21:41:22.302Z,99419.47
2024-01-27T21:43:50.975Z,99424.56
2024-01-27T21:46:19.949Z,99423.81
2024-01-27T21:48:47.659Z,99415.28
2024-01-27T21:51:15.583Z,99419.16
2024-01-27T21:53:43.444Z,99412.22
2024-01-27T21:56:12.436Z,99410.59
2024-01-27T21:58:40.151Z,99413.91
2024-01-27T22:01:07.988Z,99413.03
2024-01-27T22:03:40.118Z,99403.44
2024-01-27T22:06:08.953Z,99402.69
2024-01-27T22:08:37.689Z,99398.94
2024-01-27T22:11:06.470Z,99395.81
2024-01-27T22:13:34.306Z,99389.66
2024-01-27T22:16:02.498Z,99394.25
2024-01-27T22:18:32.131Z,99389.00
2024-01-27T22:21:01.840Z,99381.72
2024-01-27T22:23:29.840Z,99371.25
2024-01-27T22:25:58.763Z,99386.75
2024-01-27T22:28:26.371Z,99386.28
2024-01-27T22:30:54.099Z,99382.53
2024-01-27T22:33:24.442Z,99386.28
2024-01-27T22:35:52.714Z,99377.50
2024-01-27T22:38:21.820Z,99373.84
2024-01-27T22:40:49.874Z,99377.28
2024-01-27T22:43:17.639Z,99376.44
2024-01-27T22:45:45.424Z,99381.03
2024-01-27T22:48:16.851Z,99379.00
2024-01-27T22:50:44.803Z,99388.25
2024-01-27T22:53:13.726Z,99371.88
2024-01-27T22:55:43.019Z,99377.84
2024-01-27T22:58:10.588Z,99378.25
2024-01-27T23:00:40.464Z,99358.13
2024-01-27T23:03:10.933Z,99362.50
2024-01-27T23:05:38.761Z,99378.44
2024-01-27T23:08:06.825Z,99376.13
2024-01-27T23:10:35.187Z,99380.03
2024-01-27T23:13:04.560Z,99365.66
2024-01-27T23:15:32.243Z,99367.97
2024-01-27T23:18:00.014Z,99371.72
2024-01-27T23:20:27.730Z,99370.03
2024-01-27T23:22:55.308Z,99367.22
2024-01-27T23:25:23.059Z,99354.09
2024-01-27T23:27:50.758Z,99352.03
2024-01-27T23:30:19.958Z,99353.94
2024-01-27T23:32:47.779Z,99349.22
2024-01-27T23:35:15.417Z,99344.94
2024-01-27T23:37:44.417Z,99352.47
2024-01-27T23:40:13.068Z,99345.53
2024-01-27T23:42:42.277Z,99344.03
2024-01-27T23:45:10.836Z,99338.69
2024-01-27T23:47:39.932Z,99335.28
2024-01-27T23:50:08.666Z,99331.00
2024-01-27T23:52:37.757Z,99322.38
2024-01-27T23:55:06.696Z,99317.47
2024-01-27T23:57:34.447Z,99320.75
